createdAt,value
2022-08-27T00:00:59.547Z,9.10
2022-08-27T00:03:31.333Z,8.00
2022-08-27T00:06:03.712Z,8.50
2022-08-27T00:08:36.560Z,8.85
2022-08-27T00:11:09.001Z,8.57
2022-08-27T00:13:40.830Z,7.93
2022-08-27T00:16:13.474Z,8.10
2022-08-27T00:18:47.964Z,8.55
2022-08-27T00:21:20.048Z,8.52
2022-08-27T00:23:51.950Z,7.85
2022-08-27T00:26:23.829Z,8.07
2022-08-27T00:28:55.568Z,7.75
2022-08-27T00:31:27.814Z,8.65
2022-08-27T00:34:00.458Z,9.07
2022-08-27T00:36:32.855Z,8.32
2022-08-27T00:39:05.031Z,7.68
2022-08-27T00:41:38.387Z,8.75
2022-08-27T00:44:10.488Z,8.85
2022-08-27T00:46:48.241Z,8.75
2022-08-27T00:49:32.236Z,8.90
2022-08-27T00:52:28.891Z,8.50
2022-08-27T00:55:12.977Z,8.30
2022-08-27T00:57:45.746Z,8.05
2022-08-27T01:00:18.945Z,9.07
2022-08-27T01:02:50.752Z,8.05
2022-08-27T01:05:25.479Z,8.57
2022-08-27T01:07:59.938Z,8.18
2022-08-27T01:10:32.576Z,8.68
2022-08-27T01:13:04.378Z,8.57
2022-08-27T01:15:36.221Z,9.52
2022-08-27T01:18:08.245Z,7.95
2022-08-27T01:20:52.752Z,8.32
2022-08-27T01:24:03.499Z,8.48
2022-08-27T01:26:35.369Z,8.60
2022-08-27T01:29:07.143Z,8.57
2022-08-27T01:31:39.360Z,8.55
2022-08-27T01:34:11.110Z,9.20
2022-08-27T01:36:42.909Z,9.18
2022-08-27T01:39:14.687Z,8.85
2022-08-27T01:41:47.226Z,8.77
2022-08-27T01:44:24.145Z,8.25
2022-08-27T01:46:55.986Z,9.32
2022-08-27T01:49:27.794Z,8.43
2022-08-27T01:51:59.715Z,8.50
2022-08-27T01:54:32.761Z,8.07
2022-08-27T01:57:04.778Z,9.75
2022-08-27T01:59:39.696Z,8.88
2022-08-27T02:02:12.411Z,9.07
2022-08-27T02:04:44.696Z,9.48
2022-08-27T02:07:16.601Z,8.75
2022-08-27T02:09:48.345Z,9.15
2022-08-27T02:12:20.158Z,9.18
2022-08-27T02:14:52.425Z,8.95
2022-08-27T02:17:24.313Z,9.48
2022-08-27T02:19:56.928Z,8.55
2022-08-27T02:22:28.686Z,8.55
2022-08-27T02:25:00.462Z,9.60
2022-08-27T02:27:32.414Z,8.82
2022-08-27T02:30:04.693Z,7.95
2022-08-27T02:32:36.528Z,8.60
2022-08-27T02:35:09.227Z,9.18
2022-08-27T02:37:41.850Z,9.05
2022-08-27T02:40:17.219Z,9.73
2022-08-27T02:42:49.905Z,9.32
2022-08-27T02:45:21.812Z,8.60
2022-08-27T02:47:54.115Z,9.55
2022-08-27T02:50:26.990Z,9.05
2022-08-27T02:53:03.425Z,9.13
2022-08-27T02:55:35.568Z,8.98
2022-08-27T02:58:09.697Z,8.52
2022-08-27T03:00:41.732Z,9.48
2022-08-27T03:03:13.566Z,9.68
2022-08-27T03:05:45.381Z,9.43
2022-08-27T03:08:17.838Z,8.45
2022-08-27T03:10:50.606Z,10.02
2022-08-27T03:13:22.977Z,9.13
2022-08-27T03:15:54.933Z,9.45
2022-08-27T03:18:26.684Z,9.75
2022-08-27T03:21:00.033Z,10.60
2022-08-27T03:23:33.334Z,9.48
2022-08-27T03:26:05.380Z,10.13
2022-08-27T03:28:37.382Z,10.93
2022-08-27T03:31:15.006Z,10.15
2022-08-27T03:33:47.016Z,10.10
2022-08-27T03:36:18.876Z,10.25
2022-08-27T03:38:50.622Z,9.95
2022-08-27T03:41:22.754Z,9.85
2022-08-27T03:44:12.106Z,9.45
2022-08-27T03:46:53.145Z,10.10
2022-08-27T03:49:25.128Z,10.20
2022-08-27T03:51:58.034Z,10.88
2022-08-27T03:54:31.284Z,9.75
2022-08-27T03:57:03.333Z,9.70
2022-08-27T03:59:35.565Z,9.77
2022-08-27T04:02:07.387Z,9.70
2022-08-27T04:04:39.218Z,10.15
2022-08-27T04:07:11.009Z,9.23
2022-08-27T04:09:42.829Z,10.20
2022-08-27T04:12:14.651Z,10.27
2022-08-27T04:14:46.410Z,10.10
2022-08-27T04:17:18.187Z,9.82
2022-08-27T04:19:52.139Z,10.35
2022-08-27T04:25:44.582Z,9.68
2022-08-27T04:28:16.465Z,10.15
2022-08-27T04:30:48.433Z,9.93
2022-08-27T04:33:20.340Z,9.77
2022-08-27T04:36:03.026Z,10.55
2022-08-27T04:38:34.854Z,9.82
2022-08-27T04:41:20.308Z,10.50
2022-08-27T04:43:57.079Z,9.50
2022-08-27T04:46:30.983Z,10.30
2022-08-27T04:49:14.522Z,10.43
2022-08-27T04:51:47.168Z,10.68
2022-08-27T04:54:22.528Z,10.13
2022-08-27T04:57:05.261Z,9.00
2022-08-27T04:59:37.198Z,9.55
2022-08-27T05:02:09.509Z,9.15
2022-08-27T05:04:41.506Z,10.43
2022-08-27T05:07:13.536Z,9.13
2022-08-27T05:09:45.377Z,9.02
2022-08-27T05:12:17.360Z,8.45
2022-08-27T05:14:49.292Z,10.13
2022-08-27T05:17:23.647Z,9.95
2022-08-27T05:19:55.377Z,9.70
2022-08-27T05:22:27.887Z,9.40
2022-08-27T05:25:00.366Z,9.38
2022-08-27T05:27:32.192Z,9.75
2022-08-27T05:30:04.098Z,9.70
2022-08-27T05:32:35.889Z,10.43
2022-08-27T05:35:10.363Z,10.10
2022-08-27T05:37:44.620Z,9.70
2022-08-27T05:40:16.392Z,9.82
2022-08-27T05:42:51.111Z,9.77
2022-08-27T05:45:24.303Z,10.43
2022-08-27T05:47:56.146Z,9.50
2022-08-27T05:50:27.924Z,9.32
2022-08-27T05:52:59.969Z,10.05
2022-08-27T05:55:39.965Z,10.35
2022-08-27T05:58:32.738Z,9.27
2022-08-27T06:01:08.269Z,8.38
2022-08-27T06:03:42.029Z,10.48
2022-08-27T06:06:14.485Z,9.27
2022-08-27T06:08:46.404Z,10.02
2022-08-27T06:11:19.533Z,9.68
2022-08-27T06:13:51.723Z,9.70
2022-08-27T06:16:23.692Z,8.98
2022-08-27T06:18:57.346Z,9.50
2022-08-27T06:21:29.128Z,10.35
2022-08-27T06:24:00.933Z,9.70
2022-08-27T06:26:33.421Z,9.38
2022-08-27T06:29:05.927Z,10.45
2022-08-27T06:31:38.687Z,8.68
2022-08-27T06:34:12.440Z,10.55
2022-08-27T06:36:44.238Z,9.35
2022-08-27T06:39:17.009Z,9.15
2022-08-27T06:41:50.304Z,9.20
2022-08-27T06:44:25.906Z,9.88
2022-08-27T06:46:57.979Z,9.68
2022-08-27T06:49:30.378Z,9.23
2022-08-27T06:52:02.585Z,9.18
2022-08-27T06:54:34.485Z,8.90
2022-08-27T06:57:06.561Z,9.35
2022-08-27T06:59:39.993Z,9.32
2022-08-27T07:02:12.269Z,9.63
2022-08-27T07:04:44.091Z,8.65
2022-08-27T07:07:32.675Z,8.85
2022-08-27T07:10:08.327Z,9.30
2022-08-27T07:12:40.171Z,8.85
2022-08-27T07:15:12.580Z,9.00
2022-08-27T07:17:46.645Z,9.60
2022-08-27T07:20:19.177Z,9.93
2022-08-27T07:22:52.763Z,9.30
2022-08-27T07:25:24.823Z,9.52
2022-08-27T07:27:56.892Z,8.52
2022-08-27T07:30:29.006Z,9.77
2022-08-27T07:33:00.841Z,8.82
2022-08-27T07:35:32.739Z,8.70
2022-08-27T07:38:04.635Z,9.52
2022-08-27T07:40:36.448Z,8.63
2022-08-27T07:43:27.349Z,8.27
2022-08-27T07:46:00.899Z,8.45
2022-08-27T07:48:36.487Z,8.65
2022-08-27T07:51:17.770Z,8.95
2022-08-27T07:53:49.625Z,9.23
2022-08-27T07:56:21.448Z,8.10
2022-08-27T07:58:53.250Z,8.85
2022-08-27T08:01:25.259Z,9.85
2022-08-27T08:03:57.054Z,8.85
2022-08-27T08:06:28.954Z,8.32
2022-08-27T08:09:00.742Z,8.30
2022-08-27T08:11:34.020Z,8.20
2022-08-27T08:14:05.913Z,8.15
2022-08-27T08:16:38.140Z,8.95
2022-08-27T08:19:09.983Z,8.75
2022-08-27T08:21:42.878Z,8.98
2022-08-27T08:24:14.629Z,8.70
2022-08-27T08:26:46.449Z,8.57
2022-08-27T08:29:19.373Z,8.30
2022-08-27T08:31:51.216Z,7.85
2022-08-27T08:34:23.033Z,8.57
2022-08-27T08:36:55.300Z,7.10
2022-08-27T08:39:27.167Z,7.05
2022-08-27T08:42:00.481Z,8.48
2022-08-27T08:44:43.739Z,9.23
2022-08-27T08:47:44.837Z,8.20
2022-08-27T08:50:42.985Z,8.38
2022-08-27T08:53:21.081Z,7.75
2022-08-27T08:55:57.498Z,7.80
2022-08-27T08:58:50.183Z,8.30
2022-08-27T09:01:22.074Z,7.88
2022-08-27T09:03:56.503Z,7.53
2022-08-27T09:06:38.106Z,8.05
2022-08-27T09:09:24.933Z,7.72
2022-08-27T09:12:25.773Z,7.80
2022-08-27T09:15:12.468Z,8.05
2022-08-27T09:17:45.362Z,7.53
2022-08-27T09:20:19.246Z,7.57
2022-08-27T09:22:57.889Z,8.23
2022-08-27T09:25:33.740Z,7.57
2022-08-27T09:28:37.808Z,7.95
2022-08-27T09:31:15.115Z,7.35
2022-08-27T09:33:55.769Z,7.78
2022-08-27T09:36:28.962Z,6.95
2022-08-27T09:39:04.656Z,7.82
2022-08-27T09:41:43.239Z,7.75
2022-08-27T09:44:18.126Z,7.78
2022-08-27T09:46:58.038Z,8.10
2022-08-27T09:49:30.550Z,7.82
2022-08-27T09:52:02.660Z,7.90
2022-08-27T09:54:43.459Z,8.38
2022-08-27T09:57:24.786Z,8.80
2022-08-27T10:00:00.709Z,7.63
2022-08-27T10:02:32.928Z,7.30
2022-08-27T10:05:15.266Z,7.97
2022-08-27T10:07:59.876Z,7.55
2022-08-27T10:10:43.728Z,7.75
2022-08-27T10:13:43.173Z,7.55
2022-08-27T10:16:18.649Z,9.32
2022-08-27T10:18:57.470Z,8.60
2022-08-27T10:21:44.611Z,7.20
2022-08-27T10:24:35.558Z,7.50
2022-08-27T10:27:23.522Z,7.88
2022-08-27T10:30:06.181Z,8.10
2022-08-27T10:32:41.423Z,7.45
2022-08-27T10:35:35.645Z,8.38
2022-08-27T10:38:44.835Z,7.50
2022-08-27T10:41:28.502Z,7.95
2022-08-27T10:44:25.729Z,7.60
2022-08-27T10:47:19.424Z,7.68
2022-08-27T10:50:03.983Z,7.40
2022-08-27T10:52:39.769Z,7.80
2022-08-27T10:55:15.493Z,8.15
2022-08-27T10:58:11.558Z,7.53
2022-08-27T11:00:49.580Z,6.88
2022-08-27T11:03:25.114Z,8.18
2022-08-27T11:05:57.100Z,6.93
2022-08-27T11:08:49.915Z,7.15
2022-08-27T11:14:56.946Z,7.10
2022-08-27T11:17:39.745Z,7.88
2022-08-27T11:20:32.362Z,6.75
2022-08-27T11:23:07.272Z,8.05
2022-08-27T11:25:54.809Z,7.28
2022-08-27T11:29:10.304Z,7.85
2022-08-27T11:32:06.682Z,6.82
2022-08-27T11:34:42.891Z,7.40
2022-08-27T11:37:36.064Z,7.35
2022-08-27T11:40:50.941Z,7.25
2022-08-27T11:43:24.589Z,8.10
2022-08-27T11:46:01.652Z,7.72
2022-08-27T11:48:41.530Z,6.97
2022-08-27T11:51:25.689Z,7.80
2022-08-27T11:54:02.745Z,7.63
2022-08-27T11:56:41.582Z,7.13
2022-08-27T11:59:26.569Z,8.00
2022-08-27T12:02:37.210Z,8.07
2022-08-27T12:05:26.792Z,7.80
2022-08-27T12:07:59.726Z,7.97
2022-08-27T12:10:56.712Z,8.20
2022-08-27T12:13:34.470Z,7.40
2022-08-27T12:16:18.472Z,7.82
2022-08-27T12:18:59.526Z,8.38
2022-08-27T12:21:39.314Z,8.82
2022-08-27T12:24:11.159Z,8.40
2022-08-27T12:26:54.842Z,8.48
2022-08-27T12:29:31.716Z,8.45
2022-08-27T12:32:22.470Z,7.85
2022-08-27T12:35:09.339Z,8.68
2022-08-27T12:37:51.140Z,8.32
2022-08-27T12:40:28.759Z,8.23
2022-08-27T12:43:07.793Z,8.02
2022-08-27T12:45:53.270Z,9.45
2022-08-27T12:48:27.350Z,9.15
2022-08-27T12:51:04.644Z,9.95
2022-08-27T12:53:46.438Z,8.65
2022-08-27T12:56:49.350Z,8.27
2022-08-27T12:59:39.339Z,9.32
2022-08-27T13:02:29.960Z,8.90
2022-08-27T13:05:04.558Z,9.85
2022-08-27T13:07:44.116Z,9.48
2022-08-27T13:10:19.849Z,9.93
2022-08-27T13:13:20.081Z,9.90
2022-08-27T13:15:56.955Z,9.25
2022-08-27T13:18:30.561Z,10.18
2022-08-27T13:21:15.196Z,10.00
2022-08-27T13:23:54.128Z,8.93
2022-08-27T13:26:29.581Z,9.27
2022-08-27T13:29:03.708Z,8.70
2022-08-27T13:31:35.844Z,8.82
2022-08-27T13:34:07.675Z,8.88
2022-08-27T13:36:58.067Z,8.13
2022-08-27T13:39:29.869Z,8.38
2022-08-27T13:42:02.615Z,9.65
2022-08-27T13:44:36.065Z,10.18
2022-08-27T13:47:18.772Z,9.57
2022-08-27T13:49:50.781Z,10.40
2022-08-27T13:52:28.348Z,8.88
2022-08-27T13:55:05.915Z,8.85
2022-08-27T13:57:46.188Z,9.52
2022-08-27T14:00:19.115Z,9.68
2022-08-27T14:02:56.176Z,8.50
2022-08-27T14:05:31.966Z,8.93
2022-08-27T14:08:14.654Z,9.13
2022-08-27T14:10:57.962Z,8.52
2022-08-27T14:13:31.561Z,8.10
2022-08-27T14:16:13.576Z,9.52
2022-08-27T14:19:08.062Z,8.90
2022-08-27T14:21:42.211Z,9.35
2022-08-27T14:24:14.650Z,9.85
2022-08-27T14:26:54.040Z,10.23
2022-08-27T14:29:25.789Z,8.80
2022-08-27T14:31:57.748Z,9.27
2022-08-27T14:34:30.306Z,8.55
2022-08-27T14:37:02.589Z,9.27
2022-08-27T14:39:34.602Z,9.32
2022-08-27T14:42:07.121Z,9.63
2022-08-27T14:44:41.531Z,8.38
2022-08-27T14:47:13.510Z,8.05
2022-08-27T14:49:46.075Z,8.20
2022-08-27T14:52:17.845Z,8.02
2022-08-27T14:54:49.802Z,8.30
2022-08-27T14:57:22.787Z,7.95
2022-08-27T14:59:54.661Z,7.63
2022-08-27T15:02:26.559Z,8.27
2022-08-27T15:04:58.576Z,7.40
2022-08-27T15:07:30.741Z,7.40
2022-08-27T15:10:02.763Z,6.80
2022-08-27T15:12:34.643Z,7.22
2022-08-27T15:15:07.642Z,7.43
2022-08-27T15:17:39.584Z,7.30
2022-08-27T15:20:19.019Z,7.80
2022-08-27T15:22:52.449Z,8.15
2022-08-27T15:25:24.499Z,7.05
2022-08-27T15:27:56.483Z,8.50
2022-08-27T15:30:28.994Z,8.45
2022-08-27T15:33:00.887Z,7.65
2022-08-27T15:35:33.331Z,7.45
2022-08-27T15:38:05.344Z,8.38
2022-08-27T15:40:37.233Z,7.50
2022-08-27T15:43:09.293Z,7.15
2022-08-27T15:45:41.177Z,7.30
2022-08-27T15:48:13.221Z,7.50
2022-08-27T15:50:45.757Z,7.32
2022-08-27T15:53:17.571Z,8.07
2022-08-27T15:55:50.166Z,8.07
2022-08-27T15:58:22.108Z,8.43
2022-08-27T16:00:54.602Z,7.38
2022-08-27T16:03:35.728Z,7.47
2022-08-27T16:06:08.953Z,7.07
2022-08-27T16:08:42.353Z,8.23
2022-08-27T16:11:14.105Z,7.90
2022-08-27T16:13:45.851Z,7.55
2022-08-27T16:16:19.728Z,7.47
2022-08-27T16:18:51.632Z,7.82
2022-08-27T16:21:23.386Z,8.90
2022-08-27T16:23:55.255Z,8.65
2022-08-27T16:26:27.417Z,7.45
2022-08-27T16:28:59.345Z,7.70
2022-08-27T16:31:32.967Z,7.93
2022-08-27T16:34:05.343Z,8.00
2022-08-27T16:36:37.219Z,7.75
2022-08-27T16:39:09.075Z,7.50
2022-08-27T16:41:41.607Z,7.97
2022-08-27T16:44:13.588Z,8.52
2022-08-27T16:46:45.424Z,8.48
2022-08-27T16:49:35.569Z,8.77
2022-08-27T16:52:07.828Z,9.57
2022-08-27T16:54:39.944Z,9.48
2022-08-27T16:57:11.980Z,8.57
2022-08-27T16:59:43.820Z,9.25
2022-08-27T17:02:30.543Z,9.07
2022-08-27T17:05:34.028Z,9.00
2022-08-27T17:07:55.321Z,9.68
2022-08-27T17:10:28.348Z,9.40
2022-08-27T17:13:00.135Z,9.57
2022-08-27T17:15:32.127Z,8.65
2022-08-27T17:18:04.437Z,8.65
2022-08-27T17:20:36.453Z,8.10
2022-08-27T17:23:11.989Z,9.00
2022-08-27T17:25:44.117Z,9.68
2022-08-27T17:28:15.922Z,8.18
2022-08-27T17:30:47.763Z,7.55
2022-08-27T17:33:23.167Z,8.43
2022-08-27T17:35:55.058Z,7.32
2022-08-27T17:38:26.989Z,8.52
2022-08-27T17:41:00.805Z,7.53
2022-08-27T17:43:33.037Z,7.85
2022-08-27T17:46:05.126Z,7.55
2022-08-27T17:48:37.031Z,7.50
2022-08-27T17:51:09.599Z,8.77
2022-08-27T17:53:51.965Z,8.02
2022-08-27T17:56:23.881Z,7.97
2022-08-27T17:58:55.903Z,8.68
2022-08-27T18:01:30.184Z,8.38
2022-08-27T18:04:02.505Z,8.20
2022-08-27T18:06:34.670Z,8.05
2022-08-27T18:09:06.657Z,8.23
2022-08-27T18:11:38.789Z,8.35
2022-08-27T18:14:11.629Z,7.90
2022-08-27T18:16:43.549Z,9.15
2022-08-27T18:19:15.402Z,9.43
2022-08-27T18:21:47.556Z,5.68
2022-08-27T18:24:19.476Z,4.75
2022-08-27T18:26:51.357Z,7.00
2022-08-27T18:29:23.172Z,11.27
2022-08-27T18:31:56.107Z,5.18
2022-08-27T18:34:29.078Z,5.00
2022-08-27T18:37:00.896Z,6.38
2022-08-27T18:39:38.880Z,6.75
2022-08-27T18:42:11.981Z,7.30
2022-08-27T18:44:45.804Z,7.10
2022-08-27T18:47:17.766Z,7.22
2022-08-27T18:49:50.337Z,8.68
2022-08-27T18:52:22.127Z,8.63
2022-08-27T18:54:54.244Z,9.32
2022-08-27T18:57:26.484Z,9.32
2022-08-27T18:59:58.352Z,9.93
2022-08-27T19:02:30.699Z,10.23
2022-08-27T19:05:05.025Z,11.75
2022-08-27T19:07:37.126Z,8.10
2022-08-27T19:10:09.966Z,7.13
2022-08-27T19:12:43.530Z,5.30
2022-08-27T19:15:15.488Z,4.90
2022-08-27T19:17:49.965Z,3.88
2022-08-27T19:20:24.236Z,3.83
2022-08-27T19:22:55.996Z,3.95
2022-08-27T19:25:28.184Z,4.75
2022-08-27T19:28:00.129Z,4.50
2022-08-27T19:30:32.177Z,4.47
2022-08-27T19:33:04.048Z,4.50
2022-08-27T19:35:35.934Z,4.50
2022-08-27T19:38:08.670Z,4.15
2022-08-27T19:40:41.027Z,5.03
2022-08-27T19:43:13.778Z,6.40
2022-08-27T19:45:46.362Z,7.57
2022-08-27T19:48:18.197Z,6.40
2022-08-27T19:50:52.809Z,5.78
2022-08-27T19:53:24.789Z,5.18
2022-08-27T19:55:57.043Z,4.90
2022-08-27T19:58:28.956Z,4.20
2022-08-27T20:01:01.029Z,4.38
2022-08-27T20:03:33.241Z,4.63
2022-08-27T20:06:05.400Z,3.42
2022-08-27T20:08:37.384Z,3.00
2022-08-27T20:11:09.137Z,3.00
2022-08-27T20:13:50.396Z,3.97
2022-08-27T20:16:22.828Z,3.53
2022-08-27T20:18:58.332Z,4.00
2022-08-27T20:21:32.001Z,3.83
2022-08-27T20:24:03.947Z,3.75
2022-08-27T20:26:35.945Z,4.53
2022-08-27T20:29:09.054Z,5.05
2022-08-27T20:31:41.296Z,5.75
2022-08-27T20:34:13.388Z,5.80
2022-08-27T20:36:45.496Z,6.40
2022-08-27T20:39:17.784Z,6.25
2022-08-27T20:41:51.730Z,6.10
2022-08-27T20:44:23.709Z,5.97
2022-08-27T20:46:58.448Z,6.20
2022-08-27T20:49:30.478Z,5.85
2022-08-27T20:52:05.257Z,6.60
2022-08-27T20:54:38.555Z,5.20
2022-08-27T20:57:10.874Z,4.00
2022-08-27T21:00:01.402Z,4.32
2022-08-27T21:02:33.418Z,3.85
2022-08-27T21:05:12.558Z,4.00
2022-08-27T21:07:45.966Z,3.58
2022-08-27T21:10:18.090Z,3.83
2022-08-27T21:12:49.950Z,4.53
2022-08-27T21:15:21.768Z,4.55
2022-08-27T21:17:53.657Z,4.03
2022-08-27T21:20:25.424Z,4.60
2022-08-27T21:22:57.976Z,4.90
2022-08-27T21:25:29.769Z,4.60
2022-08-27T21:28:03.750Z,5.53
2022-08-27T21:30:35.933Z,5.07
2022-08-27T21:33:08.465Z,4.72
2022-08-27T21:35:40.320Z,5.32
2022-08-27T21:38:12.338Z,4.78
2022-08-27T21:40:44.722Z,5.38
2022-08-27T21:43:16.827Z,4.95
2022-08-27T21:45:48.727Z,4.82
2022-08-27T21:48:20.608Z,5.57
2022-08-27T21:50:53.656Z,4.50
2022-08-27T21:53:25.579Z,4.90
2022-08-27T21:55:57.348Z,4.93
2022-08-27T21:58:29.371Z,4.43
2022-08-27T22:01:03.956Z,4.43
2022-08-27T22:03:40.804Z,4.57
2022-08-27T22:06:15.458Z,5.55
2022-08-27T22:08:47.554Z,4.68
2022-08-27T22:11:24.008Z,4.43
2022-08-27T22:13:57.087Z,4.28
2022-08-27T22:16:29.398Z,5.30
2022-08-27T22:19:01.482Z,5.70
2022-08-27T22:21:33.640Z,4.47
2022-08-27T22:24:05.898Z,4.82
2022-08-27T22:26:37.989Z,5.03
2022-08-27T22:29:09.811Z,5.45
2022-08-27T22:31:41.660Z,5.88
2022-08-27T22:34:14.994Z,5.78
2022-08-27T22:36:49.751Z,6.90
2022-08-27T22:39:21.514Z,6.22
2022-08-27T22:41:56.388Z,6.28
2022-08-27T22:44:29.548Z,6.43
2022-08-27T22:47:01.564Z,6.95
2022-08-27T22:49:33.385Z,6.88
2022-08-27T22:52:05.181Z,6.40
2022-08-27T22:54:36.913Z,7.50
2022-08-27T22:57:10.598Z,6.60
2022-08-27T22:59:42.567Z,6.50
2022-08-27T23:02:14.410Z,6.57
2022-08-27T23:04:54.924Z,7.80
2022-08-27T23:07:27.442Z,6.63
2022-08-27T23:09:59.533Z,7.40
2022-08-27T23:12:32.051Z,6.53
2022-08-27T23:15:05.221Z,6.38
2022-08-27T23:17:37.368Z,6.65
2022-08-27T23:20:10.081Z,7.07
2022-08-27T23:22:42.114Z,6.57
2022-08-27T23:25:32.590Z,7.03
2022-08-27T23:28:06.511Z,6.47
2022-08-27T23:30:39.025Z,6.50
2022-08-27T23:33:11.416Z,6.60
2022-08-27T23:35:47.960Z,6.55
2022-08-27T23:38:20.045Z,6.90
2022-08-27T23:40:52.397Z,6.90
2022-08-27T23:43:24.369Z,7.30
2022-08-27T23:45:56.801Z,6.82
2022-08-27T23:48:28.550Z,7.20
2022-08-27T23:51:01.018Z,6.60
2022-08-27T23:53:33.213Z,6.15
2022-08-27T23:56:05.702Z,6.57
2022-08-27T23:58:37.590Z,6.70
